首页
METAR-TAF:

METAR-TAF

机场 :

Munising, 密歇根州, 美国

纬度: 46-24N, 经度: 086-39W, 海拔: 187米

当前天气观测

该预报发布于37分钟前的20:56 UTC
风速5节,风向东北
温度 21°C
湿度 56%
气压 1017 hPa

METAR: KP53 052056Z AUTO 04005KT 21/12 A3002 RMK AO1 SLP166 T02110122 56004

时间: 17:33 (21:33 UTC)


TAF: 丢失

超过4000个机场的气象观测和天气预报(METAR&TAF报告)。

可查询的气象台以黄色和红色小点在地图上表示。

将鼠标移到小点上方,可查看气象台名称。

然后点击查看天气观测和预报。

如需切换地图:点击带黑十字的绿色按钮放大地图;点击带横线的绿色按钮缩小地图;或者点击绿色箭头查看邻近地区的地图。


METAR-TAF: